createdAt,value
2018-09-19T00:01:49.460Z,7.90
2018-09-19T00:04:21.023Z,7.80
2018-09-19T00:06:52.205Z,7.80
2018-09-19T00:09:23.451Z,7.87
2018-09-19T00:11:54.554Z,8.17
2018-09-19T00:14:26.574Z,7.67
2018-09-19T00:16:57.565Z,7.80
2018-09-19T00:19:28.759Z,7.60
2018-09-19T00:21:59.802Z,7.87
2018-09-19T00:24:31.172Z,7.40
2018-09-19T00:27:02.299Z,7.73
2018-09-19T00:29:33.338Z,8.10
2018-09-19T00:32:04.542Z,8.37
2018-09-19T00:34:35.785Z,7.80
2018-09-19T00:37:07.020Z,8.00
2018-09-19T00:39:38.326Z,7.43
2018-09-19T00:42:09.474Z,7.30
2018-09-19T00:44:41.533Z,7.10
2018-09-19T00:47:12.818Z,7.07
2018-09-19T00:49:44.032Z,7.47
2018-09-19T00:52:15.041Z,6.87
2018-09-19T00:54:46.418Z,6.97
2018-09-19T00:57:17.727Z,7.67
2018-09-19T00:59:48.970Z,7.23
2018-09-19T01:02:20.172Z,7.30
2018-09-19T01:04:51.350Z,7.23
2018-09-19T01:07:22.391Z,7.10
2018-09-19T01:09:53.634Z,7.57
2018-09-19T01:12:24.937Z,7.63
2018-09-19T01:14:56.185Z,7.60
2018-09-19T01:17:27.529Z,7.03
2018-09-19T01:19:58.711Z,8.00
2018-09-19T01:22:29.719Z,7.30
2018-09-19T01:25:00.901Z,7.87
2018-09-19T01:27:32.067Z,8.33
2018-09-19T01:30:03.331Z,7.90
2018-09-19T01:32:35.157Z,8.27
2018-09-19T01:35:06.765Z,7.90
2018-09-19T01:37:37.848Z,8.03
2018-09-19T01:40:09.042Z,8.03
2018-09-19T01:42:40.469Z,7.80
2018-09-19T01:45:12.112Z,7.93
2018-09-19T01:47:43.207Z,7.67
2018-09-19T01:50:14.184Z,8.03
2018-09-19T01:52:45.407Z,8.30
2018-09-19T01:55:16.779Z,8.10
2018-09-19T01:57:47.792Z,8.30
2018-09-19T02:00:19.175Z,7.57
2018-09-19T02:02:50.541Z,7.97
2018-09-19T02:05:21.773Z,7.80
2018-09-19T02:07:53.128Z,8.13
2018-09-19T02:10:24.327Z,8.97
2018-09-19T02:12:55.632Z,8.67
2018-09-19T02:15:27.575Z,9.27
2018-09-19T02:17:58.904Z,8.90
2018-09-19T02:20:30.063Z,8.70
2018-09-19T02:23:01.640Z,8.40
2018-09-19T02:25:32.656Z,8.50
2018-09-19T02:28:04.241Z,8.70
2018-09-19T02:30:35.528Z,9.10
2018-09-19T02:33:06.915Z,8.63
2018-09-19T02:35:38.015Z,9.60
2018-09-19T02:38:09.202Z,8.77
2018-09-19T02:40:40.409Z,9.40
2018-09-19T02:43:11.695Z,8.80
2018-09-19T02:45:42.759Z,9.07
2018-09-19T02:48:13.981Z,8.83
2018-09-19T02:50:45.327Z,8.67
2018-09-19T02:53:16.653Z,8.90
2018-09-19T02:55:47.726Z,8.53
2018-09-19T02:58:18.784Z,8.73
2018-09-19T03:00:50.402Z,9.00
2018-09-19T03:03:21.694Z,8.90
2018-09-19T03:05:52.891Z,8.60
2018-09-19T03:08:23.912Z,8.77
2018-09-19T03:10:54.959Z,9.40
2018-09-19T03:13:26.392Z,9.10
2018-09-19T03:15:57.488Z,9.50
2018-09-19T03:18:28.991Z,9.10
2018-09-19T03:21:00.248Z,9.30
2018-09-19T03:23:32.095Z,9.20
2018-09-19T03:26:03.423Z,9.10
2018-09-19T03:28:34.844Z,9.87
2018-09-19T03:31:06.019Z,9.13
2018-09-19T03:33:37.387Z,10.87
2018-09-19T03:36:08.399Z,11.40
2018-09-19T03:38:39.754Z,10.77
2018-09-19T03:41:10.957Z,10.20
2018-09-19T03:43:42.131Z,11.33
2018-09-19T03:46:13.827Z,10.13
2018-09-19T03:48:44.987Z,10.47
2018-09-19T03:51:16.463Z,11.00
2018-09-19T03:53:47.723Z,10.10
2018-09-19T03:56:19.180Z,9.87
2018-09-19T03:58:50.751Z,10.50
2018-09-19T04:01:21.873Z,10.53
2018-09-19T04:03:53.076Z,9.90
2018-09-19T04:06:24.535Z,9.40
2018-09-19T04:08:55.821Z,9.07
2018-09-19T04:11:26.911Z,9.20
2018-09-19T04:13:58.007Z,9.10
2018-09-19T04:16:29.707Z,9.90
2018-09-19T04:19:00.972Z,9.20
2018-09-19T04:21:32.123Z,9.00
2018-09-19T04:24:03.359Z,9.40
2018-09-19T04:26:34.342Z,9.37
2018-09-19T04:29:05.597Z,9.30
2018-09-19T04:31:36.935Z,9.60
2018-09-19T04:34:08.145Z,8.27
2018-09-19T04:36:40.038Z,9.10
2018-09-19T04:39:13.297Z,9.70
2018-09-19T04:41:44.484Z,9.50
2018-09-19T04:44:15.635Z,9.80
2018-09-19T04:46:46.839Z,9.57
2018-09-19T04:49:18.029Z,12.17
2018-09-19T04:51:49.281Z,11.83
2018-09-19T04:54:20.417Z,12.00
2018-09-19T04:56:51.667Z,11.33
2018-09-19T04:59:23.276Z,11.17
2018-09-19T05:01:54.603Z,11.10
2018-09-19T05:04:25.664Z,11.37
2018-09-19T05:06:56.763Z,11.30
2018-09-19T05:09:27.965Z,11.83
2018-09-19T05:11:59.144Z,11.50
2018-09-19T05:14:30.348Z,11.73
2018-09-19T05:17:01.535Z,11.60
2018-09-19T05:19:32.730Z,11.70
2018-09-19T05:22:03.983Z,11.50
2018-09-19T05:24:35.158Z,11.80
2018-09-19T05:27:06.315Z,11.63
2018-09-19T05:29:37.345Z,12.37
2018-09-19T05:32:08.559Z,12.20
2018-09-19T05:34:39.863Z,12.27
2018-09-19T05:37:11.085Z,13.87
2018-09-19T05:39:42.503Z,14.87
2018-09-19T05:42:13.696Z,15.73
2018-09-19T05:44:44.831Z,16.07
2018-09-19T05:47:15.867Z,16.83
2018-09-19T05:49:47.236Z,17.57
2018-09-19T05:52:18.426Z,17.70
2018-09-19T05:54:49.605Z,19.53
2018-09-19T05:57:20.868Z,17.97
2018-09-19T05:59:52.012Z,19.03
2018-09-19T06:02:23.239Z,19.17
2018-09-19T06:04:54.614Z,19.13
2018-09-19T06:07:26.056Z,18.70
2018-09-19T06:09:57.350Z,21.47
2018-09-19T06:12:28.532Z,20.47
2018-09-19T06:14:59.538Z,20.10
2018-09-19T06:17:31.178Z,20.27
2018-09-19T06:20:02.382Z,21.10
2018-09-19T06:22:34.507Z,20.97
2018-09-19T06:25:06.062Z,21.60
2018-09-19T06:27:37.255Z,21.90
2018-09-19T06:30:08.710Z,23.13
2018-09-19T06:32:39.871Z,22.40
2018-09-19T06:35:11.084Z,22.57
2018-09-19T06:37:42.439Z,22.03
2018-09-19T06:40:13.652Z,22.60
2018-09-19T06:42:44.838Z,23.00
2018-09-19T06:45:15.828Z,23.87
2018-09-19T06:47:47.486Z,22.43
2018-09-19T06:50:18.775Z,23.97
2018-09-19T06:52:50.048Z,24.37
2018-09-19T06:55:21.372Z,23.73
2018-09-19T06:57:52.559Z,23.03
2018-09-19T07:00:23.555Z,23.33
2018-09-19T07:02:54.753Z,23.93
2018-09-19T07:05:25.748Z,24.00
2018-09-19T07:07:57.132Z,24.03
2018-09-19T07:10:28.379Z,24.07
2018-09-19T07:12:59.489Z,23.30
2018-09-19T07:15:31.005Z,24.50
2018-09-19T07:18:02.324Z,23.80
2018-09-19T07:20:33.484Z,23.03
2018-09-19T07:23:04.636Z,24.40
2018-09-19T07:25:35.860Z,23.37
2018-09-19T07:28:06.867Z,22.87
2018-09-19T07:30:38.224Z,23.07
2018-09-19T07:33:09.424Z,22.27
2018-09-19T07:35:40.670Z,23.07
2018-09-19T07:38:12.044Z,23.33
2018-09-19T07:40:43.200Z,22.37
2018-09-19T07:43:14.409Z,21.60
2018-09-19T07:45:46.203Z,22.37
2018-09-19T07:48:17.347Z,21.60
2018-09-19T07:50:48.853Z,22.20
2018-09-19T07:53:20.200Z,20.50
2018-09-19T07:55:51.611Z,19.57
2018-09-19T07:58:22.906Z,20.50
2018-09-19T08:00:55.140Z,20.53
2018-09-19T08:03:26.110Z,21.37
2018-09-19T08:05:57.288Z,21.40
2018-09-19T08:08:28.499Z,20.63
2018-09-19T08:10:59.744Z,21.03
2018-09-19T08:13:31.049Z,21.50
2018-09-19T08:16:02.082Z,19.77
2018-09-19T08:18:33.434Z,20.10
2018-09-19T08:21:04.484Z,21.30
2018-09-19T08:23:35.607Z,20.17
2018-09-19T08:26:06.646Z,20.33
2018-09-19T08:28:38.017Z,17.70
2018-09-19T08:31:09.199Z,18.20
2018-09-19T08:33:40.204Z,17.67
2018-09-19T08:36:11.735Z,18.47
2018-09-19T08:38:42.984Z,19.63
2018-09-19T08:41:14.534Z,19.47
2018-09-19T08:43:45.576Z,19.60
2018-09-19T08:46:16.926Z,19.43
2018-09-19T08:48:48.324Z,18.43
2018-09-19T08:51:19.586Z,18.67
2018-09-19T08:53:50.749Z,17.77
2018-09-19T08:56:22.119Z,19.13
2018-09-19T08:58:53.484Z,19.40
2018-09-19T09:01:24.716Z,18.63
2018-09-19T09:03:55.855Z,19.00
2018-09-19T09:06:27.049Z,19.37
2018-09-19T09:08:58.356Z,20.57
2018-09-19T09:11:29.759Z,20.83
2018-09-19T09:14:01.317Z,18.97
2018-09-19T09:16:32.409Z,19.67
2018-09-19T09:19:03.440Z,19.13
2018-09-19T09:21:34.793Z,19.87
2018-09-19T09:24:05.832Z,21.13
2018-09-19T09:26:37.211Z,21.20
2018-09-19T09:29:08.410Z,20.70
2018-09-19T09:31:39.567Z,20.17
2018-09-19T09:34:10.824Z,19.87
2018-09-19T09:36:41.997Z,18.80
2018-09-19T09:39:13.172Z,21.00
2018-09-19T09:41:45.638Z,21.03
2018-09-19T09:44:16.723Z,21.07
2018-09-19T09:46:48.070Z,19.90
2018-09-19T09:49:19.075Z,20.50
2018-09-19T09:51:50.526Z,18.80
2018-09-19T09:54:21.862Z,18.40
2018-09-19T09:56:53.266Z,19.30
2018-09-19T09:59:24.434Z,19.70
2018-09-19T10:01:55.655Z,19.03
2018-09-19T10:04:27.336Z,19.10
2018-09-19T10:06:58.603Z,18.57
2018-09-19T10:09:29.599Z,19.10
2018-09-19T10:12:00.831Z,19.33
2018-09-19T10:14:32.305Z,19.90
2018-09-19T10:17:03.556Z,18.67
2018-09-19T10:19:34.754Z,19.33
2018-09-19T10:22:06.002Z,17.80
2018-09-19T10:24:37.858Z,17.30
2018-09-19T10:27:08.943Z,15.23
2018-09-19T10:29:40.191Z,14.50
2018-09-19T10:32:11.544Z,14.90
2018-09-19T10:34:42.697Z,16.00
2018-09-19T10:37:13.708Z,14.53
2018-09-19T10:39:45.070Z,14.00
2018-09-19T10:42:16.278Z,14.57
2018-09-19T10:44:47.267Z,14.60
2018-09-19T10:47:19.278Z,14.50
2018-09-19T10:49:50.836Z,14.47
2018-09-19T10:52:22.019Z,12.60
2018-09-19T10:54:54.386Z,13.97
2018-09-19T10:57:25.379Z,14.43
2018-09-19T10:59:56.576Z,14.43
2018-09-19T11:02:27.787Z,12.97
2018-09-19T11:04:58.962Z,12.80
2018-09-19T11:07:30.439Z,12.67
2018-09-19T11:10:01.740Z,11.73
2018-09-19T11:12:32.930Z,13.20
2018-09-19T11:15:04.217Z,11.97
2018-09-19T11:17:35.557Z,11.95
2018-09-19T11:20:07.059Z,11.30
2018-09-19T11:22:38.580Z,13.10
2018-09-19T11:25:10.316Z,11.90
2018-09-19T11:27:41.495Z,11.77
2018-09-19T11:30:12.867Z,12.23
2018-09-19T11:32:44.022Z,12.40
2018-09-19T11:35:15.052Z,12.93
2018-09-19T11:37:46.219Z,12.13
2018-09-19T11:40:17.412Z,9.77
2018-09-19T11:42:48.896Z,9.80
2018-09-19T11:45:20.243Z,9.53
2018-09-19T11:47:51.409Z,9.50
2018-09-19T11:50:22.440Z,7.87
2018-09-19T11:52:53.826Z,7.83
2018-09-19T11:55:25.275Z,8.40
2018-09-19T11:57:56.627Z,8.13
2018-09-19T12:00:27.931Z,8.43
2018-09-19T12:02:59.111Z,8.45
2018-09-19T12:05:30.315Z,8.13
2018-09-19T12:08:01.528Z,8.63
2018-09-19T12:10:32.514Z,8.28
2018-09-19T12:13:04.055Z,7.92
2018-09-19T12:15:35.660Z,8.23
2018-09-19T12:18:06.763Z,8.10
2018-09-19T12:20:38.033Z,7.60
2018-09-19T12:23:09.765Z,7.50
2018-09-19T12:25:41.118Z,7.60
2018-09-19T12:28:12.219Z,7.47
2018-09-19T12:30:43.457Z,7.40
2018-09-19T12:33:14.819Z,7.00
2018-09-19T12:35:46.199Z,7.40
2018-09-19T12:38:17.695Z,7.47
2018-09-19T12:40:49.266Z,5.90
2018-09-19T12:43:20.551Z,6.90
2018-09-19T12:45:51.743Z,6.43
2018-09-19T12:48:22.735Z,6.28
2018-09-19T12:50:53.741Z,6.95
2018-09-19T12:53:25.307Z,7.20
2018-09-19T12:55:56.543Z,6.83
2018-09-19T12:58:30.181Z,6.87
2018-09-19T13:01:01.946Z,7.00
2018-09-19T13:03:33.598Z,7.10
2018-09-19T13:06:04.817Z,5.97
2018-09-19T13:08:36.072Z,6.37
2018-09-19T13:11:07.202Z,6.62
2018-09-19T13:13:38.271Z,5.97
2018-09-19T13:16:09.211Z,5.87
2018-09-19T13:18:40.630Z,5.28
2018-09-19T13:21:11.808Z,5.70
2018-09-19T13:23:43.186Z,5.72
2018-09-19T13:26:14.609Z,5.30
2018-09-19T13:28:45.751Z,5.47
2018-09-19T13:31:17.409Z,5.67
2018-09-19T13:33:48.516Z,5.62
2018-09-19T13:36:19.694Z,5.70
2018-09-19T13:38:50.743Z,5.42
2018-09-19T13:41:22.095Z,5.65
2018-09-19T13:43:53.128Z,5.62
2018-09-19T13:46:24.650Z,5.62
2018-09-19T13:49:02.858Z,5.60
2018-09-19T13:51:33.935Z,6.50
2018-09-19T13:54:05.142Z,6.28
2018-09-19T13:56:36.185Z,5.87
2018-09-19T13:59:07.420Z,5.60
2018-09-19T14:01:38.688Z,6.00
2018-09-19T14:04:09.890Z,5.72
2018-09-19T14:06:41.102Z,5.92
2018-09-19T14:09:12.762Z,5.90
2018-09-19T14:11:44.118Z,5.70
2018-09-19T14:14:15.279Z,5.70
2018-09-19T14:16:46.914Z,5.42
2018-09-19T14:19:18.326Z,5.78
2018-09-19T14:21:49.606Z,5.78
2018-09-19T14:24:20.776Z,5.90
2018-09-19T14:26:52.039Z,5.65
2018-09-19T14:29:23.499Z,6.05
2018-09-19T14:31:54.771Z,6.00
2018-09-19T14:34:25.956Z,6.50
2018-09-19T14:36:57.256Z,5.90
2018-09-19T14:39:28.451Z,5.87
2018-09-19T14:41:59.548Z,6.03
2018-09-19T14:44:30.935Z,6.08
2018-09-19T14:47:02.103Z,6.17
2018-09-19T14:49:33.332Z,6.22
2018-09-19T14:52:05.298Z,5.90
2018-09-19T14:54:36.901Z,6.00
2018-09-19T14:57:08.359Z,6.00
2018-09-19T14:59:39.910Z,6.40
2018-09-19T15:02:11.111Z,6.33
2018-09-19T15:04:42.403Z,6.25
2018-09-19T15:07:13.684Z,6.30
2018-09-19T15:09:45.051Z,6.60
2018-09-19T15:12:16.383Z,6.87
2018-09-19T15:14:47.858Z,6.23
2018-09-19T15:17:19.147Z,6.17
2018-09-19T15:19:50.338Z,6.30
2018-09-19T15:22:21.596Z,5.97
2018-09-19T15:24:52.929Z,6.50
2018-09-19T15:27:24.296Z,6.22
2018-09-19T15:29:55.520Z,6.27
2018-09-19T15:32:26.729Z,5.97
2018-09-19T15:34:58.570Z,6.53
2018-09-19T15:37:29.934Z,6.00
2018-09-19T15:40:01.084Z,6.03
2018-09-19T15:42:32.287Z,6.90
2018-09-19T15:45:03.668Z,5.93
2018-09-19T15:47:34.727Z,6.40
2018-09-19T15:50:06.122Z,6.50
2018-09-19T15:52:37.420Z,6.20
2018-09-19T15:55:09.827Z,5.90
2018-09-19T15:57:41.213Z,6.03
2018-09-19T16:00:12.983Z,5.47
2018-09-19T16:02:44.905Z,5.80
2018-09-19T16:05:15.940Z,6.37
2018-09-19T16:07:47.007Z,6.15
2018-09-19T16:10:18.128Z,5.80
2018-09-19T16:12:49.690Z,6.50
2018-09-19T16:15:21.204Z,7.00
2018-09-19T16:17:52.696Z,6.40
2018-09-19T16:20:23.902Z,6.63
2018-09-19T16:22:55.077Z,6.43
2018-09-19T16:25:26.732Z,6.13
2018-09-19T16:27:57.839Z,6.63
2018-09-19T16:30:29.087Z,6.93
2018-09-19T16:33:02.176Z,6.03
2018-09-19T16:35:34.796Z,6.40
2018-09-19T16:38:05.910Z,6.30
2018-09-19T16:40:37.179Z,7.10
2018-09-19T16:43:08.426Z,6.43
2018-09-19T16:45:39.675Z,7.70
2018-09-19T16:48:10.773Z,6.03
2018-09-19T16:50:41.884Z,6.73
2018-09-19T16:53:13.172Z,6.43
2018-09-19T16:55:44.564Z,6.43
2018-09-19T16:58:16.998Z,10.97
2018-09-19T17:00:48.248Z,8.50
2018-09-19T17:03:19.232Z,6.83
2018-09-19T17:05:50.274Z,6.30
2018-09-19T17:08:21.619Z,6.23
2018-09-19T17:10:52.813Z,6.50
2018-09-19T17:13:24.060Z,6.87
2018-09-19T17:15:55.670Z,6.43
2018-09-19T17:18:26.899Z,6.80
2018-09-19T17:20:58.159Z,6.93
2018-09-19T17:23:29.662Z,7.00
2018-09-19T17:26:00.743Z,7.03
2018-09-19T17:28:32.089Z,6.43
2018-09-19T17:31:04.551Z,6.40
2018-09-19T17:33:36.186Z,6.67
2018-09-19T17:36:07.498Z,6.53
2018-09-19T17:38:39.475Z,6.20
2018-09-19T17:41:10.832Z,6.60
2018-09-19T17:43:42.078Z,6.70
2018-09-19T17:46:13.764Z,6.23
2018-09-19T17:48:44.931Z,7.40
2018-09-19T17:51:16.074Z,6.80
2018-09-19T17:53:47.956Z,7.30
2018-09-19T17:56:19.696Z,7.53
2018-09-19T17:58:51.006Z,7.47
2018-09-19T18:01:22.393Z,7.40
2018-09-19T18:03:53.909Z,7.67
2018-09-19T18:06:24.987Z,6.83
2018-09-19T18:08:56.204Z,7.43
2018-09-19T18:11:27.496Z,7.13
2018-09-19T18:13:58.518Z,7.13
2018-09-19T18:16:29.994Z,6.30
2018-09-19T18:19:01.120Z,6.67
2018-09-19T18:21:32.466Z,6.53
2018-09-19T18:24:03.833Z,7.43
2018-09-19T18:26:35.062Z,6.97
2018-09-19T18:29:06.103Z,6.93
2018-09-19T18:31:37.315Z,6.80
2018-09-19T18:34:08.905Z,8.07
2018-09-19T18:36:40.257Z,7.80
2018-09-19T18:39:11.398Z,7.57
2018-09-19T18:41:42.612Z,7.43
2018-09-19T18:44:13.960Z,7.67
2018-09-19T18:46:45.358Z,7.17
2018-09-19T18:49:16.387Z,7.97
2018-09-19T18:51:47.735Z,7.57
2018-09-19T18:54:23.872Z,8.30
2018-09-19T18:56:54.867Z,7.87
2018-09-19T18:59:26.081Z,8.80
2018-09-19T19:01:57.430Z,9.00
2018-09-19T19:04:28.436Z,8.80
2018-09-19T19:06:59.611Z,8.50
2018-09-19T19:09:30.778Z,8.73
2018-09-19T19:12:02.042Z,8.93
2018-09-19T19:14:33.374Z,9.53
2018-09-19T19:17:04.944Z,9.43
2018-09-19T19:19:36.306Z,9.77
2018-09-19T19:22:07.608Z,10.47
2018-09-19T19:24:39.060Z,10.10
2018-09-19T19:27:10.124Z,9.67
2018-09-19T19:29:41.547Z,9.83
2018-09-19T19:32:12.908Z,9.90
2018-09-19T19:34:43.953Z,10.57
2018-09-19T19:37:15.523Z,9.70
2018-09-19T19:39:46.870Z,9.33
2018-09-19T19:42:18.087Z,10.23
2018-09-19T19:44:49.473Z,10.47
2018-09-19T19:47:20.682Z,9.87
2018-09-19T19:49:52.047Z,10.37
2018-09-19T19:52:23.228Z,9.90
2018-09-19T19:54:54.474Z,9.70
2018-09-19T19:57:25.794Z,10.37
2018-09-19T19:59:57.021Z,10.20
2018-09-19T20:02:28.850Z,10.03
2018-09-19T20:05:00.193Z,10.13
2018-09-19T20:07:31.322Z,10.17
2018-09-19T20:10:02.341Z,10.50
2018-09-19T20:12:33.573Z,9.90
2018-09-19T20:15:05.062Z,10.83
2018-09-19T20:17:36.283Z,10.60
2018-09-19T20:20:07.629Z,9.83
2018-09-19T20:22:38.663Z,9.90
2018-09-19T20:25:09.927Z,10.53
2018-09-19T20:27:41.254Z,10.57
2018-09-19T20:30:12.287Z,10.30
2018-09-19T20:32:43.469Z,10.67
2018-09-19T20:35:14.623Z,10.50
2018-09-19T20:37:45.791Z,10.93
2018-09-19T20:40:17.068Z,11.07
2018-09-19T20:42:48.234Z,11.53
2018-09-19T20:45:19.403Z,11.30
2018-09-19T20:47:50.404Z,10.43
2018-09-19T20:50:21.572Z,11.13
2018-09-19T20:52:53.096Z,11.00
2018-09-19T20:55:24.238Z,11.23
2018-09-19T20:57:56.268Z,10.53
2018-09-19T21:00:27.551Z,11.40
2018-09-19T21:02:58.919Z,10.30
2018-09-19T21:05:30.094Z,10.70
2018-09-19T21:08:01.295Z,10.20
2018-09-19T21:10:33.199Z,10.30
2018-09-19T21:13:04.501Z,11.00
2018-09-19T21:15:35.643Z,11.40
2018-09-19T21:22:55.135Z,10.60
2018-09-19T21:25:26.150Z,10.77
2018-09-19T21:27:57.335Z,11.20
2018-09-19T21:30:28.547Z,11.10
2018-09-19T21:32:59.732Z,11.27
2018-09-19T21:35:31.074Z,10.33
2018-09-19T21:38:02.383Z,10.60
2018-09-19T21:40:33.937Z,11.47
2018-09-19T21:43:05.236Z,10.93
2018-09-19T21:45:36.239Z,11.13
2018-09-19T21:48:07.447Z,11.10
2018-09-19T21:50:38.620Z,11.87
2018-09-19T21:53:09.812Z,11.93
2018-09-19T21:55:41.147Z,11.73
2018-09-19T21:58:12.397Z,11.90
2018-09-19T22:00:43.956Z,12.10
2018-09-19T22:03:15.639Z,12.00
2018-09-19T22:05:46.956Z,11.50
2018-09-19T22:08:18.117Z,12.40
2018-09-19T22:10:49.291Z,12.17
2018-09-19T22:13:20.815Z,11.90
2018-09-19T22:15:52.109Z,12.30
2018-09-19T22:18:23.151Z,11.70
2018-09-19T22:20:54.294Z,11.50
2018-09-19T22:24:28.514Z,11.73
2018-09-19T22:26:59.595Z,12.07
2018-09-19T22:29:30.601Z,12.07
2018-09-19T22:32:01.576Z,11.53
2018-09-19T22:34:33.811Z,11.83
2018-09-19T22:37:05.168Z,12.10
2018-09-19T22:39:36.347Z,11.60
2018-09-19T22:42:07.723Z,11.77
2018-09-19T22:44:38.901Z,12.13
2018-09-19T22:47:10.204Z,12.43
2018-09-19T22:49:41.533Z,12.00
2018-09-19T22:52:12.725Z,12.57
2018-09-19T22:54:44.126Z,11.77
2018-09-19T22:57:15.273Z,11.77
2018-09-19T22:59:46.443Z,11.87
2018-09-19T23:02:17.460Z,11.60
2018-09-19T23:04:50.000Z,11.57
2018-09-19T23:07:21.196Z,11.60
2018-09-19T23:09:52.408Z,11.43
2018-09-19T23:12:23.411Z,12.03
2018-09-19T23:14:54.927Z,11.40
2018-09-19T23:17:25.971Z,12.17
2018-09-19T23:19:57.479Z,12.30
2018-09-19T23:22:29.276Z,11.90
2018-09-19T23:25:01.866Z,11.97
2018-09-19T23:27:32.940Z,11.57
2018-09-19T23:30:04.311Z,11.33
2018-09-19T23:32:35.287Z,11.50
2018-09-19T23:35:07.013Z,11.87
2018-09-19T23:37:38.083Z,11.50
2018-09-19T23:40:09.436Z,11.43
2018-09-19T23:42:40.679Z,11.30
2018-09-19T23:45:11.890Z,11.47
2018-09-19T23:47:43.071Z,11.60
2018-09-19T23:50:14.419Z,11.50
2018-09-19T23:52:45.629Z,11.03
2018-09-19T23:55:17.164Z,11.77
2018-09-19T23:57:48.250Z,11.30
